Time;durP1;ratioP1;P1;durP2;ratioP2;P2;SDS_P1;SDS_P2;PMS_P1;PMS_P2;Temp;Humidity;BMP_temperature;BMP_pressure;BME280_temperature;BME280_humidity;BME280_pressure;Samples;Min_cycle;Max_cycle;Signal;HPM_P1;HPM_P2
2021/06/18 00:02:00;;;;;;;;;5.60;5.60;;;;;;;;5007220;28;8831;-86
2021/06/18 00:04:27;;;;;;;;;4.00;4.00;;;;;;;;5006919;28;8872;-76
2021/06/18 00:06:55;;;;;;;;;5.00;5.00;;;;;;;;5007790;28;8856;-82
2021/06/18 00:09:23;;;;;;;;;7.00;7.00;;;;;;;;5005024;28;8914;-79
2021/06/18 00:11:50;;;;;;;;;4.80;4.80;;;;;;;;5007056;28;8896;-81
2021/06/18 00:14:17;;;;;;;;;6.60;5.20;;;;;;;;5005158;28;8991;-83
2021/06/18 00:16:44;;;;;;;;;5.00;5.00;;;;;;;;5005856;28;8864;-80
2021/06/18 00:19:12;;;;;;;;;5.40;5.40;;;;;;;;5009780;28;8963;-78
2021/06/18 00:21:39;;;;;;;;;6.20;5.80;;;;;;;;5005287;28;9641;-76
2021/06/18 00:24:09;;;;;;;;;4.80;4.80;;;;;;;;5004617;28;8998;-84
2021/06/18 00:26:36;;;;;;;;;5.00;5.00;;;;;;;;5003062;28;8888;-83
2021/06/18 00:29:03;;;;;;;;;4.80;4.80;;;;;;;;5005722;28;8868;-83
2021/06/18 00:31:30;;;;;;;;;7.20;4.00;;;;;;;;5003521;28;8843;-83
2021/06/18 00:33:58;;;;;;;;;4.40;4.40;;;;;;;;5005185;28;8898;-83
2021/06/18 00:36:25;;;;;;;;;7.20;6.60;;;;;;;;5004602;28;8876;-92
2021/06/18 00:38:52;;;;;;;;;3.40;3.40;;;;;;;;5005731;28;8879;-81
2021/06/18 00:41:21;;;;;;;;;4.40;4.40;;;;;;;;5023374;28;8907;-80
2021/06/18 00:43:53;;;;;;;;;5.60;5.60;;;;;;;;5023241;28;8946;-76
2021/06/18 00:46:20;;;;;;;;;5.20;5.20;;;;;;;;5008662;28;8853;-81
2021/06/18 00:48:48;;;;;;;;;6.00;6.00;;;;;;;;5007833;28;8882;-79
2021/06/18 00:51:15;;;;;;;;;5.00;5.00;;;;;;;;5007462;28;8867;-82
2021/06/18 00:53:43;;;;;;;;;5.20;5.20;;;;;;;;5013526;28;8879;-76
2021/06/18 00:56:11;;;;;;;;;5.20;5.20;;;;;;;;5010730;28;8994;-77
2021/06/18 00:58:40;;;;;;;;;5.80;5.80;;;;;;;;5009679;28;8991;-76
2021/06/18 01:01:07;;;;;;;;;6.20;5.80;;;;;;;;5006291;28;8844;-91
2021/06/18 01:03:35;;;;;;;;;5.20;5.20;;;;;;;;5009378;28;8851;-75
2021/06/18 01:06:02;;;;;;;;;12.00;10.50;;;;;;;;5009261;28;8865;-76
2021/06/18 01:08:34;;;;;;;;;13.80;13.40;;;;;;;;5013324;28;8872;-86
2021/06/18 01:11:05;;;;;;;;;15.20;15.20;;;;;;;;5006554;28;8884;-79
2021/06/18 01:13:45;;;;;;;;;12.80;12.20;;;;;;;;5003224;28;8871;-77
2021/06/18 01:16:15;;;;;;;;;12.00;11.80;;;;;;;;5002971;28;8909;-76
2021/06/18 01:18:46;;;;;;;;;11.20;10.80;;;;;;;;5013198;28;8841;-79
2021/06/18 01:21:23;;;;;;;;;11.40;9.60;;;;;;;;5013281;28;8886;-76
2021/06/18 01:24:13;;;;;;;;;10.00;10.00;;;;;;;;5008014;28;8888;-75
2021/06/18 01:27:17;;;;;;;;;7.60;7.60;;;;;;;;5003602;28;8878;-85
2021/06/18 01:29:48;;;;;;;;;7.20;7.00;;;;;;;;5000185;28;8887;-83
2021/06/18 01:32:20;;;;;;;;;11.00;10.00;;;;;;;;5003436;28;8842;-85
2021/06/18 01:34:48;;;;;;;;;8.00;8.00;;;;;;;;5001735;28;8863;-75
2021/06/18 01:37:18;;;;;;;;;6.80;6.80;;;;;;;;5003746;28;8864;-75
2021/06/18 01:39:46;;;;;;;;;7.00;7.00;;;;;;;;5011335;28;8874;-77
2021/06/18 01:42:16;;;;;;;;;5.00;5.00;;;;;;;;5005071;28;8868;-80
2021/06/18 01:44:44;;;;;;;;;6.20;6.20;;;;;;;;5007848;28;9781;-76
2021/06/18 01:47:15;;;;;;;;;8.00;6.40;;;;;;;;5007275;28;8958;-79
2021/06/18 01:49:44;;;;;;;;;5.20;5.20;;;;;;;;5011351;28;8848;-86
2021/06/18 01:52:15;;;;;;;;;4.60;4.60;;;;;;;;5018708;28;8852;-85
2021/06/18 01:54:45;;;;;;;;;5.00;3.40;;;;;;;;5016811;28;8870;-78
2021/06/18 01:57:13;;;;;;;;;3.00;1.00;;;;;;;;5019789;28;8861;-79
2021/06/18 01:59:44;;;;;;;;;4.00;4.00;;;;;;;;5021504;28;8971;-76
2021/06/18 02:02:14;;;;;;;;;3.20;3.20;;;;;;;;5024562;28;8945;-76
2021/06/18 02:04:42;;;;;;;;;2.00;2.00;;;;;;;;5025353;28;8848;-81
2021/06/18 02:07:11;;;;;;;;;3.20;2.00;;;;;;;;5011897;28;8868;-78
2021/06/18 02:09:41;;;;;;;;;2.40;2.40;;;;;;;;5011458;28;8960;-78
2021/06/18 02:12:14;;;;;;;;;3.20;2.40;;;;;;;;5020453;28;8974;-76
2021/06/18 02:14:42;;;;;;;;;3.00;3.00;;;;;;;;5020362;28;8974;-86
2021/06/18 02:17:12;;;;;;;;;3.20;3.20;;;;;;;;5012980;28;8867;-77
2021/06/18 02:19:41;;;;;;;;;2.80;2.00;;;;;;;;5012054;28;9645;-80
2021/06/18 02:22:10;;;;;;;;;2.20;2.20;;;;;;;;5020886;28;8955;-78
2021/06/18 02:24:39;;;;;;;;;2.60;2.60;;;;;;;;5016494;28;8986;-85
2021/06/18 02:27:07;;;;;;;;;2.00;2.00;;;;;;;;5014021;28;8884;-77
2021/06/18 02:29:35;;;;;;;;;2.00;2.00;;;;;;;;5022820;28;8896;-92
2021/06/18 02:32:06;;;;;;;;;3.00;2.60;;;;;;;;5030731;28;8789;-86
2021/06/18 02:34:36;;;;;;;;;2.40;2.40;;;;;;;;5027901;28;8914;-80
2021/06/18 02:37:06;;;;;;;;;3.00;3.00;;;;;;;;5024964;28;8876;-79
2021/06/18 02:39:33;;;;;;;;;4.20;4.00;;;;;;;;5022682;28;8943;-78
2021/06/18 02:42:01;;;;;;;;;3.00;3.00;;;;;;;;5017757;28;8918;-76
2021/06/18 02:44:29;;;;;;;;;2.00;2.00;;;;;;;;5018282;28;9611;-81
2021/06/18 02:46:59;;;;;;;;;4.00;4.00;;;;;;;;5018315;28;8840;-77
2021/06/18 02:49:37;;;;;;;;;4.60;4.60;;;;;;;;5015699;28;8949;-76
2021/06/18 02:52:09;;;;;;;;;5.00;5.00;;;;;;;;5016038;28;8906;-81
2021/06/18 02:54:42;;;;;;;;;8.00;4.80;;;;;;;;5013514;28;8887;-75
2021/06/18 02:57:12;;;;;;;;;5.60;5.60;;;;;;;;5015899;28;8956;-76
2021/06/18 02:59:48;;;;;;;;;6.40;6.40;;;;;;;;5008105;28;8864;-81
2021/06/18 03:02:18;;;;;;;;;5.60;5.60;;;;;;;;5003002;28;8809;-82
2021/06/18 03:04:47;;;;;;;;;8.60;7.00;;;;;;;;5005258;28;8883;-78
2021/06/18 03:07:18;;;;;;;;;5.80;4.40;;;;;;;;5007422;28;9636;-79
2021/06/18 03:09:53;;;;;;;;;9.80;6.80;;;;;;;;5013753;28;9642;-77
2021/06/18 03:12:23;;;;;;;;;8.60;7.80;;;;;;;;5009717;28;8884;-75
2021/06/18 03:14:52;;;;;;;;;6.40;6.40;;;;;;;;5004447;28;8879;-78
2021/06/18 03:17:20;;;;;;;;;8.00;6.80;;;;;;;;5009062;28;8876;-77
2021/06/18 03:19:52;;;;;;;;;8.20;7.40;;;;;;;;5005716;28;8995;-76
2021/06/18 03:22:21;;;;;;;;;6.20;6.00;;;;;;;;5009313;28;8876;-75
2021/06/18 03:24:49;;;;;;;;;7.00;7.00;;;;;;;;5004561;28;8872;-81
2021/06/18 03:27:16;;;;;;;;;6.20;6.20;;;;;;;;5005704;28;8888;-84
2021/06/18 03:29:44;;;;;;;;;7.20;7.20;;;;;;;;5004978;28;9767;-82
2021/06/18 03:32:12;;;;;;;;;8.00;8.00;;;;;;;;5006847;28;8820;-79
2021/06/18 03:34:40;;;;;;;;;9.00;7.80;;;;;;;;5003652;28;8944;-85
2021/06/18 03:37:09;;;;;;;;;8.60;7.40;;;;;;;;5006831;28;8884;-89
2021/06/18 03:39:36;;;;;;;;;8.40;8.40;;;;;;;;5010593;28;8982;-77
2021/06/18 03:42:04;;;;;;;;;7.80;7.80;;;;;;;;5010444;28;8996;-79
2021/06/18 03:44:33;;;;;;;;;9.60;9.40;;;;;;;;5008767;28;8967;-81
2021/06/18 03:47:01;;;;;;;;;6.60;6.60;;;;;;;;5014638;28;8974;-79
2021/06/18 03:49:29;;;;;;;;;6.80;5.00;;;;;;;;5014119;28;8867;-82
2021/06/18 03:51:58;;;;;;;;;9.60;9.20;;;;;;;;5004716;28;8971;-83
2021/06/18 03:54:27;;;;;;;;;11.00;7.40;;;;;;;;5005772;28;9641;-83
2021/06/18 03:57:00;;;;;;;;;9.40;9.40;;;;;;;;5003373;28;8946;-81
2021/06/18 03:59:28;;;;;;;;;9.80;9.80;;;;;;;;5003417;28;8884;-83
2021/06/18 04:01:57;;;;;;;;;10.80;9.20;;;;;;;;5003156;28;8967;-83
2021/06/18 04:04:27;;;;;;;;;9.20;9.20;;;;;;;;5008120;28;9729;-83
2021/06/18 04:06:55;;;;;;;;;7.80;7.80;;;;;;;;5003124;28;8864;-83
2021/06/18 04:09:22;;;;;;;;;7.00;7.00;;;;;;;;5008676;28;8865;-83
2021/06/18 04:11:52;;;;;;;;;8.60;8.60;;;;;;;;5004614;28;8865;-78
2021/06/18 04:14:19;;;;;;;;;10.60;10.60;;;;;;;;5002372;28;8844;-83
2021/06/18 04:16:47;;;;;;;;;11.00;10.00;;;;;;;;5007433;28;8872;-75
2021/06/18 04:19:15;;;;;;;;;10.00;9.60;;;;;;;;5008815;28;8980;-83
2021/06/18 04:21:44;;;;;;;;;10.80;10.80;;;;;;;;5012039;28;8921;-79
2021/06/18 04:24:12;;;;;;;;;11.40;11.40;;;;;;;;5003681;28;8880;-83
2021/06/18 04:26:39;;;;;;;;;13.60;11.40;;;;;;;;5004711;28;8880;-85
2021/06/18 04:29:08;;;;;;;;;8.80;8.80;;;;;;;;5005197;28;8856;-79
2021/06/18 04:31:36;;;;;;;;;11.60;11.60;;;;;;;;5014170;28;8816;-77
2021/06/18 04:34:06;;;;;;;;;12.80;12.80;;;;;;;;5004193;28;8963;-77
2021/06/18 04:36:34;;;;;;;;;13.80;12.40;;;;;;;;5011053;28;8910;-77
2021/06/18 04:39:01;;;;;;;;;11.40;11.40;;;;;;;;5004951;28;8884;-79
2021/06/18 04:41:29;;;;;;;;;14.00;12.40;;;;;;;;4998093;28;9000;-76
2021/06/18 04:43:56;;;;;;;;;10.60;10.60;;;;;;;;5004660;28;9006;-78
2021/06/18 04:46:25;;;;;;;;;13.50;11.75;;;;;;;;5003116;28;9038;-76
2021/06/18 04:48:52;;;;;;;;;12.80;12.80;;;;;;;;5003723;28;8879;-77
2021/06/18 04:51:20;;;;;;;;;13.00;11.60;;;;;;;;5013262;28;8864;-76
2021/06/18 04:53:48;;;;;;;;;11.20;11.20;;;;;;;;5003419;28;8996;-77
2021/06/18 04:56:15;;;;;;;;;11.60;11.60;;;;;;;;5005031;28;8841;-76
2021/06/18 04:58:42;;;;;;;;;12.20;12.20;;;;;;;;4999436;28;8880;-78
2021/06/18 05:01:10;;;;;;;;;13.00;11.80;;;;;;;;5003655;28;8844;-79
2021/06/18 05:03:39;;;;;;;;;12.00;12.00;;;;;;;;5002677;28;8860;-79
2021/06/18 05:06:06;;;;;;;;;18.00;12.40;;;;;;;;5003869;28;8875;-79
2021/06/18 05:08:33;;;;;;;;;12.60;10.80;;;;;;;;5003878;28;8848;-77
2021/06/18 05:11:01;;;;;;;;;13.20;13.20;;;;;;;;5003453;28;8915;-81
2021/06/18 05:13:28;;;;;;;;;12.20;11.80;;;;;;;;5010460;28;8887;-80
2021/06/18 05:15:56;;;;;;;;;11.00;11.00;;;;;;;;5006901;28;9018;-79
2021/06/18 05:18:23;;;;;;;;;10.40;9.60;;;;;;;;5005417;28;9750;-77
2021/06/18 05:20:52;;;;;;;;;10.60;10.00;;;;;;;;5004936;28;8897;-79
2021/06/18 05:23:20;;;;;;;;;13.80;12.00;;;;;;;;5006613;28;8938;-75
2021/06/18 05:25:47;;;;;;;;;10.40;10.40;;;;;;;;5006506;28;8876;-72
2021/06/18 05:28:14;;;;;;;;;12.60;10.60;;;;;;;;5006257;28;8894;-74
2021/06/18 05:30:41;;;;;;;;;10.00;8.00;;;;;;;;5006444;28;8808;-86
2021/06/18 05:33:09;;;;;;;;;10.00;10.00;;;;;;;;5004326;28;8998;-78
2021/06/18 05:35:36;;;;;;;;;9.60;9.60;;;;;;;;5005656;28;8844;-79
2021/06/18 05:38:07;;;;;;;;;8.00;7.60;;;;;;;;5016512;28;8876;-77
2021/06/18 05:40:35;;;;;;;;;5.80;5.80;;;;;;;;5003464;28;8882;-82
2021/06/18 05:43:03;;;;;;;;;10.00;9.20;;;;;;;;5007384;28;8958;-76
2021/06/18 05:45:33;;;;;;;;;8.60;7.00;;;;;;;;5006752;28;8872;-75
2021/06/18 05:48:00;;;;;;;;;6.40;6.40;;;;;;;;5007234;28;8894;-80
2021/06/18 05:50:27;;;;;;;;;6.20;6.20;;;;;;;;5006897;28;9030;-83
2021/06/18 05:52:54;;;;;;;;;6.60;6.60;;;;;;;;5007248;28;8895;-79
2021/06/18 05:55:23;;;;;;;;;6.60;6.60;;;;;;;;5006937;28;9018;-78
2021/06/18 05:57:51;;;;;;;;;8.00;8.00;;;;;;;;5007453;28;8997;-82
2021/06/18 06:00:20;;;;;;;;;4.40;4.40;;;;;;;;5005527;28;8852;-79
2021/06/18 06:02:47;;;;;;;;;4.80;4.00;;;;;;;;5007190;28;9637;-78
2021/06/18 06:05:15;;;;;;;;;5.00;5.00;;;;;;;;5006163;28;8856;-78
2021/06/18 06:07:46;;;;;;;;;6.00;5.00;;;;;;;;5004202;28;8867;-78
2021/06/18 06:10:14;;;;;;;;;6.00;5.20;;;;;;;;5006679;28;8983;-75
2021/06/18 06:12:44;;;;;;;;;4.20;4.20;;;;;;;;5005247;28;9086;-77
2021/06/18 06:15:11;;;;;;;;;6.40;5.00;;;;;;;;5002873;28;9033;-77
2021/06/18 06:17:39;;;;;;;;;3.80;3.80;;;;;;;;5002771;28;9639;-89
2021/06/18 06:20:08;;;;;;;;;6.00;6.00;;;;;;;;5006252;28;9712;-81
2021/06/18 06:22:35;;;;;;;;;6.00;4.80;;;;;;;;5001667;28;8860;-84
2021/06/18 06:25:03;;;;;;;;;4.60;4.60;;;;;;;;5002117;28;8975;-81
2021/06/18 06:27:31;;;;;;;;;4.60;3.80;;;;;;;;5005514;28;8864;-81
2021/06/18 06:30:03;;;;;;;;;7.00;7.00;;;;;;;;5004133;28;9062;-79
2021/06/18 06:32:30;;;;;;;;;6.20;6.20;;;;;;;;5005932;28;8845;-81
2021/06/18 06:34:57;;;;;;;;;7.80;6.40;;;;;;;;5005152;28;8848;-81
2021/06/18 06:37:25;;;;;;;;;4.80;4.80;;;;;;;;5005778;28;8895;-82
2021/06/18 06:39:52;;;;;;;;;8.80;7.00;;;;;;;;5005699;28;8891;-83
2021/06/18 06:42:20;;;;;;;;;6.80;6.20;;;;;;;;5004525;28;8890;-80
2021/06/18 06:44:47;;;;;;;;;7.00;7.00;;;;;;;;5005231;28;8901;-85
2021/06/18 06:47:15;;;;;;;;;6.80;6.80;;;;;;;;5002528;28;8856;-78
2021/06/18 06:49:44;;;;;;;;;7.20;6.00;;;;;;;;5003092;28;8888;-81
2021/06/18 06:52:11;;;;;;;;;8.40;8.40;;;;;;;;5004484;28;8868;-83
2021/06/18 06:54:39;;;;;;;;;8.20;7.00;;;;;;;;5004875;28;8888;-84
2021/06/18 06:57:07;;;;;;;;;6.20;6.20;;;;;;;;5005521;28;8890;-85
2021/06/18 06:59:34;;;;;;;;;7.00;7.00;;;;;;;;5006246;28;8990;-87
2021/06/18 07:02:02;;;;;;;;;10.20;7.80;;;;;;;;5001638;28;8853;-87
2021/06/18 07:04:30;;;;;;;;;8.40;7.20;;;;;;;;5003658;28;8876;-79
2021/06/18 07:06:57;;;;;;;;;7.20;7.20;;;;;;;;5001737;28;9735;-89
2021/06/18 07:09:25;;;;;;;;;7.80;7.80;;;;;;;;5005070;28;8884;-84
2021/06/18 07:11:52;;;;;;;;;8.80;8.80;;;;;;;;5006715;28;8844;-88
2021/06/18 07:14:19;;;;;;;;;9.00;9.00;;;;;;;;5005568;28;8893;-81
2021/06/18 07:16:46;;;;;;;;;8.60;8.60;;;;;;;;5006343;28;8902;-78
2021/06/18 07:19:14;;;;;;;;;21.80;16.60;;;;;;;;5006266;28;8840;-80
2021/06/18 07:21:43;;;;;;;;;10.00;10.00;;;;;;;;5004597;28;8954;-74
2021/06/18 07:24:10;;;;;;;;;9.20;9.20;;;;;;;;5001470;28;8876;-78
2021/06/18 07:26:38;;;;;;;;;10.40;10.40;;;;;;;;4996101;28;8852;-80
2021/06/18 07:29:05;;;;;;;;;12.80;11.00;;;;;;;;4998648;28;8872;-76
2021/06/18 07:31:32;;;;;;;;;9.60;9.60;;;;;;;;5001085;28;9565;-82
2021/06/18 07:34:01;;;;;;;;;26.20;25.20;;;;;;;;5004157;28;8918;-86
2021/06/18 07:36:28;;;;;;;;;27.40;24.00;;;;;;;;5002867;28;9017;-74
2021/06/18 07:38:57;;;;;;;;;14.20;12.00;;;;;;;;4998879;28;8864;-76
2021/06/18 07:41:24;;;;;;;;;10.20;10.20;;;;;;;;5000731;28;8884;-76
2021/06/18 07:43:52;;;;;;;;;11.40;11.40;;;;;;;;4996551;28;10406;-73
2021/06/18 07:46:20;;;;;;;;;12.00;10.40;;;;;;;;5002879;28;8860;-74
2021/06/18 07:48:47;;;;;;;;;10.00;10.00;;;;;;;;5002244;28;9704;-75
2021/06/18 07:51:15;;;;;;;;;10.40;10.40;;;;;;;;5003313;28;9714;-76
2021/06/18 07:53:42;;;;;;;;;6.40;6.40;;;;;;;;5000247;28;8856;-79
2021/06/18 07:56:11;;;;;;;;;10.80;10.80;;;;;;;;4997389;28;8880;-79
2021/06/18 07:58:39;;;;;;;;;11.00;11.00;;;;;;;;5004114;28;8860;-77
2021/06/18 08:01:06;;;;;;;;;8.80;8.80;;;;;;;;5001043;28;8837;-81
2021/06/18 08:03:34;;;;;;;;;9.80;9.80;;;;;;;;5001167;28;8864;-81
2021/06/18 08:06:01;;;;;;;;;9.80;9.80;;;;;;;;4996776;28;8884;-78
2021/06/18 08:08:28;;;;;;;;;5.00;5.00;;;;;;;;5006759;28;8982;-89
2021/06/18 08:10:55;;;;;;;;;9.80;9.00;;;;;;;;5002484;28;8891;-79
2021/06/18 08:13:24;;;;;;;;;8.80;7.00;;;;;;;;5004266;28;8872;-85
2021/06/18 08:15:51;;;;;;;;;7.80;7.80;;;;;;;;5002314;28;8862;-86
2021/06/18 08:18:18;;;;;;;;;9.80;9.80;;;;;;;;5002631;28;8880;-84
2021/06/18 08:20:46;;;;;;;;;11.00;10.00;;;;;;;;5000582;28;8855;-83
2021/06/18 08:23:14;;;;;;;;;8.20;8.20;;;;;;;;5001151;28;8890;-91
2021/06/18 08:25:42;;;;;;;;;9.00;7.40;;;;;;;;5003478;28;8929;-93
2021/06/18 08:28:09;;;;;;;;;11.40;9.40;;;;;;;;4997165;28;9069;-85
2021/06/18 08:30:38;;;;;;;;;8.80;8.80;;;;;;;;4998480;28;9621;-89
2021/06/18 08:33:06;;;;;;;;;11.00;10.00;;;;;;;;5000912;28;8934;-86
2021/06/18 08:35:33;;;;;;;;;7.40;7.40;;;;;;;;4998327;28;8860;-78
2021/06/18 08:38:02;;;;;;;;;6.00;6.00;;;;;;;;4996342;28;8870;-77
2021/06/18 08:40:30;;;;;;;;;10.00;10.00;;;;;;;;5000695;28;9642;-79
2021/06/18 08:42:58;;;;;;;;;11.00;9.60;;;;;;;;5001597;28;9788;-79
2021/06/18 08:45:26;;;;;;;;;7.80;7.80;;;;;;;;5000246;28;8864;-79
2021/06/18 08:47:55;;;;;;;;;9.80;9.80;;;;;;;;5002249;28;8848;-78
2021/06/18 08:50:25;;;;;;;;;11.60;9.80;;;;;;;;5001531;28;8910;-74
2021/06/18 08:52:53;;;;;;;;;9.20;8.60;;;;;;;;5000926;28;8884;-89
2021/06/18 08:55:21;;;;;;;;;8.40;8.40;;;;;;;;5003287;28;8883;-93
2021/06/18 08:57:50;;;;;;;;;8.60;8.60;;;;;;;;5004636;28;9171;-81
2021/06/18 09:00:18;;;;;;;;;8.00;8.00;;;;;;;;5005369;28;8856;-94
2021/06/18 09:02:46;;;;;;;;;8.60;8.60;;;;;;;;5004526;28;8876;-86
2021/06/18 09:05:16;;;;;;;;;8.00;7.00;;;;;;;;5004644;28;8976;-91
2021/06/18 09:07:53;;;;;;;;;6.60;6.60;;;;;;;;4998834;28;8992;-75
2021/06/18 09:10:32;;;;;;;;;5.20;5.20;;;;;;;;4997966;28;8906;-85
2021/06/18 09:13:14;;;;;;;;;5.60;5.60;;;;;;;;4997557;28;8958;-87
2021/06/18 09:15:44;;;;;;;;;5.80;5.80;;;;;;;;4999970;28;8994;-83
2021/06/18 09:18:30;;;;;;;;;9.60;8.00;;;;;;;;5004270;28;8880;-84
2021/06/18 09:21:28;;;;;;;;;9.40;7.00;;;;;;;;4997827;28;8876;-86
2021/06/18 09:23:57;;;;;;;;;9.00;9.00;;;;;;;;4993917;28;8895;-83
2021/06/18 09:26:30;;;;;;;;;8.00;8.00;;;;;;;;5002138;28;9633;-88
2021/06/18 09:29:10;;;;;;;;;7.60;7.60;;;;;;;;5002388;28;8868;-84
2021/06/18 09:31:40;;;;;;;;;7.80;7.20;;;;;;;;5001007;28;9118;-85
2021/06/18 09:34:09;;;;;;;;;9.00;7.40;;;;;;;;5003712;28;8906;-80
2021/06/18 09:36:38;;;;;;;;;8.80;8.80;;;;;;;;5000726;28;8876;-80
2021/06/18 09:39:07;;;;;;;;;7.00;7.00;;;;;;;;5003096;28;8892;-78
2021/06/18 09:41:37;;;;;;;;;7.80;7.80;;;;;;;;5004194;28;8864;-80
2021/06/18 09:44:06;;;;;;;;;10.20;8.80;;;;;;;;4999779;28;8848;-83
2021/06/18 09:46:48;;;;;;;;;8.20;8.20;;;;;;;;4996597;28;8876;-82
2021/06/18 09:49:35;;;;;;;;;7.60;7.60;;;;;;;;5001822;28;8991;-79
2021/06/18 09:52:05;;;;;;;;;6.40;6.40;;;;;;;;5003696;28;8966;-80
2021/06/18 09:54:38;;;;;;;;;6.80;6.80;;;;;;;;5001894;28;8876;-86
2021/06/18 09:57:07;;;;;;;;;6.60;6.60;;;;;;;;5001870;28;8978;-85
2021/06/18 09:59:46;;;;;;;;;5.40;5.40;;;;;;;;5002977;28;9665;-85
2021/06/18 10:02:14;;;;;;;;;6.00;6.00;;;;;;;;5004120;28;8820;-75
2021/06/18 10:04:41;;;;;;;;;5.20;5.20;;;;;;;;5007156;28;8883;-92
2021/06/18 10:07:10;;;;;;;;;4.20;4.20;;;;;;;;5005971;28;8884;-84
2021/06/18 10:09:38;;;;;;;;;10.60;7.60;;;;;;;;5006396;28;8884;-87
2021/06/18 10:12:11;;;;;;;;;4.60;4.60;;;;;;;;5005553;28;8902;-81
2021/06/18 10:14:38;;;;;;;;;7.00;7.00;;;;;;;;5005912;28;8895;-84
2021/06/18 10:17:06;;;;;;;;;6.60;4.80;;;;;;;;5001823;28;8883;-82
2021/06/18 10:19:33;;;;;;;;;7.80;6.00;;;;;;;;5005112;28;8867;-79
2021/06/18 10:22:04;;;;;;;;;6.40;6.40;;;;;;;;5004561;28;8876;-84
2021/06/18 10:24:39;;;;;;;;;4.80;4.80;;;;;;;;5007635;28;8904;-88
2021/06/18 10:27:09;;;;;;;;;5.60;5.00;;;;;;;;5003515;28;8933;-79
2021/06/18 10:29:39;;;;;;;;;6.00;6.00;;;;;;;;5001398;28;8958;-82
2021/06/18 10:32:35;;;;;;;;;6.20;5.60;;;;;;;;5001636;28;8843;-82
2021/06/18 10:35:06;;;;;;;;;6.00;6.00;;;;;;;;5000339;28;8864;-79
2021/06/18 10:37:34;;;;;;;;;7.40;7.40;;;;;;;;5003213;28;8879;-84
2021/06/18 10:40:11;;;;;;;;;4.00;4.00;;;;;;;;5006932;28;8880;-81
2021/06/18 10:42:54;;;;;;;;;6.00;6.00;;;;;;;;5004415;28;9633;-86
2021/06/18 10:45:21;;;;;;;;;6.60;6.00;;;;;;;;5009872;28;8860;-81
2021/06/18 10:47:58;;;;;;;;;6.20;6.20;;;;;;;;5020138;28;9080;-76
2021/06/18 10:50:48;;;;;;;;;7.80;6.80;;;;;;;;5012959;28;8895;-82
2021/06/18 10:53:22;;;;;;;;;7.40;6.40;;;;;;;;5006835;28;8950;-86
2021/06/18 10:55:55;;;;;;;;;8.60;6.80;;;;;;;;5004442;28;9665;-90
2021/06/18 10:58:22;;;;;;;;;7.60;7.60;;;;;;;;5006753;28;8923;-82
2021/06/18 11:00:50;;;;;;;;;9.00;8.60;;;;;;;;5002836;28;8832;-84
2021/06/18 11:03:19;;;;;;;;;6.00;5.40;;;;;;;;5006030;28;8882;-83
2021/06/18 11:05:48;;;;;;;;;9.80;6.20;;;;;;;;5003146;28;8902;-87
2021/06/18 11:08:31;;;;;;;;;5.40;5.40;;;;;;;;5005828;28;8990;-82
2021/06/18 11:10:59;;;;;;;;;7.00;7.00;;;;;;;;5002971;28;8840;-87
2021/06/18 11:13:27;;;;;;;;;8.80;7.20;;;;;;;;5001695;28;8910;-86
2021/06/18 11:15:55;;;;;;;;;6.60;6.60;;;;;;;;4995931;28;8882;-80
2021/06/18 11:18:41;;;;;;;;;6.80;4.20;;;;;;;;5003392;28;8870;-85
2021/06/18 11:21:09;;;;;;;;;5.00;5.00;;;;;;;;5004216;28;8865;-85
2021/06/18 11:23:39;;;;;;;;;6.20;4.80;;;;;;;;5004272;28;8841;-84
2021/06/18 11:26:13;;;;;;;;;5.60;5.60;;;;;;;;4998625;28;9668;-86
2021/06/18 11:28:53;;;;;;;;;5.00;5.00;;;;;;;;5001853;28;8941;-92
2021/06/18 11:31:23;;;;;;;;;6.40;5.60;;;;;;;;5002169;28;8828;-84
2021/06/18 11:33:53;;;;;;;;;4.60;4.60;;;;;;;;5000548;28;8844;-80
2021/06/18 11:36:49;;;;;;;;;4.60;4.60;;;;;;;;5003532;28;8870;-83
2021/06/18 11:39:22;;;;;;;;;7.80;6.00;;;;;;;;4979956;28;8998;-83
2021/06/18 11:42:02;;;;;;;;;2.00;2.00;;;;;;;;5003377;28;8883;-82
2021/06/18 11:44:30;;;;;;;;;3.20;3.20;;;;;;;;5003419;28;8982;-84
2021/06/18 11:46:58;;;;;;;;;2.80;2.80;;;;;;;;5005068;28;8865;-83
2021/06/18 11:49:33;;;;;;;;;1.60;1.60;;;;;;;;4999822;28;8887;-80
2021/06/18 11:52:09;;;;;;;;;4.00;4.00;;;;;;;;5002399;28;8894;-82
2021/06/18 11:54:41;;;;;;;;;4.60;3.00;;;;;;;;5003018;28;8983;-83
2021/06/18 11:57:13;;;;;;;;;3.20;3.20;;;;;;;;5000761;28;8879;-83
2021/06/18 11:59:43;;;;;;;;;4.00;4.00;;;;;;;;5004530;28;8860;-83
2021/06/18 12:02:20;;;;;;;;;3.20;3.20;;;;;;;;5003373;28;8848;-83
2021/06/18 12:05:13;;;;;;;;;3.20;3.20;;;;;;;;5005429;28;8867;-83
2021/06/18 12:07:40;;;;;;;;;4.20;3.60;;;;;;;;5000809;28;8982;-84
2021/06/18 12:10:09;;;;;;;;;3.00;3.00;;;;;;;;5004298;28;8868;-82
2021/06/18 12:12:48;;;;;;;;;6.40;4.40;;;;;;;;5005403;28;8875;-85
2021/06/18 12:15:23;;;;;;;;;3.00;3.00;;;;;;;;4996533;28;8980;-86
2021/06/18 12:17:51;;;;;;;;;4.60;4.60;;;;;;;;4993698;28;8884;-79
2021/06/18 12:20:27;;;;;;;;;3.00;3.00;;;;;;;;4997246;28;8852;-82
2021/06/18 12:22:55;;;;;;;;;2.80;2.20;;;;;;;;4998995;28;8977;-84
2021/06/18 12:25:22;;;;;;;;;2.80;2.80;;;;;;;;4997426;28;8868;-81
2021/06/18 12:27:56;;;;;;;;;4.00;4.00;;;;;;;;5001473;28;8876;-82
2021/06/18 12:30:25;;;;;;;;;4.00;4.00;;;;;;;;5002467;28;8820;-82
2021/06/18 12:32:53;;;;;;;;;3.00;3.00;;;;;;;;5002596;28;8864;-80
2021/06/18 12:35:22;;;;;;;;;2.00;2.00;;;;;;;;5001579;28;8892;-82
2021/06/18 12:37:52;;;;;;;;;3.00;3.00;;;;;;;;5001902;28;8841;-82
2021/06/18 12:40:26;;;;;;;;;5.20;3.60;;;;;;;;4999417;28;8868;-81
2021/06/18 12:42:56;;;;;;;;;3.20;3.20;;;;;;;;5000715;28;9014;-82
2021/06/18 12:45:25;;;;;;;;;3.00;3.00;;;;;;;;4994925;28;8870;-81
2021/06/18 12:48:07;;;;;;;;;4.60;4.00;;;;;;;;5001469;28;9536;-82
2021/06/18 12:50:36;;;;;;;;;3.00;3.00;;;;;;;;4995152;28;8942;-81
2021/06/18 12:53:06;;;;;;;;;3.60;3.60;;;;;;;;5000845;28;8897;-79
2021/06/18 12:55:34;;;;;;;;;3.20;3.20;;;;;;;;5000983;28;9709;-79
2021/06/18 12:58:14;;;;;;;;;4.20;4.20;;;;;;;;5001928;28;8903;-81
2021/06/18 13:00:51;;;;;;;;;3.00;3.00;;;;;;;;5002857;28;8844;-82
2021/06/18 13:03:30;;;;;;;;;3.60;3.60;;;;;;;;5001222;28;8897;-81
2021/06/18 13:05:58;;;;;;;;;2.20;2.20;;;;;;;;4999385;28;10647;-82
2021/06/18 13:08:26;;;;;;;;;3.80;3.80;;;;;;;;5002943;28;8878;-82
2021/06/18 13:10:54;;;;;;;;;2.00;2.00;;;;;;;;5001517;28;8844;-80
2021/06/18 13:13:37;;;;;;;;;4.00;4.00;;;;;;;;5002625;28;9002;-83
2021/06/18 13:16:10;;;;;;;;;4.00;4.00;;;;;;;;4995528;28;8868;-82
2021/06/18 13:18:54;;;;;;;;;3.00;3.00;;;;;;;;5001629;28;9702;-82
2021/06/18 13:21:22;;;;;;;;;3.60;3.60;;;;;;;;5002805;28;8880;-80
2021/06/18 13:23:49;;;;;;;;;2.40;2.40;;;;;;;;5002425;28;9011;-81
2021/06/18 13:26:17;;;;;;;;;2.00;2.00;;;;;;;;5006708;28;8914;-79
2021/06/18 13:28:47;;;;;;;;;3.00;1.80;;;;;;;;5003782;28;9110;-81
2021/06/18 13:31:20;;;;;;;;;2.00;2.00;;;;;;;;5001095;28;8812;-87
2021/06/18 13:33:50;;;;;;;;;3.20;3.20;;;;;;;;5001796;28;8856;-82
2021/06/18 13:36:27;;;;;;;;;2.80;2.60;;;;;;;;5004347;28;9014;-82
2021/06/18 13:38:55;;;;;;;;;2.00;2.00;;;;;;;;5006303;28;8890;-81
2021/06/18 13:41:34;;;;;;;;;2.00;2.00;;;;;;;;5005488;28;8885;-84
2021/06/18 13:44:04;;;;;;;;;3.80;2.20;;;;;;;;5004109;28;8930;-84
2021/06/18 13:46:31;;;;;;;;;2.00;2.00;;;;;;;;5005709;28;8868;-81
2021/06/18 13:48:58;;;;;;;;;2.60;2.60;;;;;;;;5007847;28;9018;-82
2021/06/18 13:51:26;;;;;;;;;2.00;2.00;;;;;;;;5007344;28;8876;-81
2021/06/18 13:53:54;;;;;;;;;1.60;0.20;;;;;;;;5005208;28;8902;-82
2021/06/18 13:56:22;;;;;;;;;3.00;2.20;;;;;;;;5009325;28;8937;-84
2021/06/18 13:58:51;;;;;;;;;1.00;1.00;;;;;;;;5007685;28;8979;-78
2021/06/18 14:01:19;;;;;;;;;1.00;1.00;;;;;;;;5006810;28;8859;-79
2021/06/18 14:03:47;;;;;;;;;1.40;1.40;;;;;;;;5006007;28;8882;-83
2021/06/18 14:06:17;;;;;;;;;2.20;1.80;;;;;;;;5005372;28;8871;-83
2021/06/18 14:08:44;;;;;;;;;2.00;2.00;;;;;;;;5006609;28;8987;-83
2021/06/18 14:11:15;;;;;;;;;1.40;1.40;;;;;;;;5005836;28;8914;-83
2021/06/18 14:13:42;;;;;;;;;1.60;1.60;;;;;;;;5006243;28;8840;-80
2021/06/18 14:16:10;;;;;;;;;1.00;1.00;;;;;;;;5004407;28;8987;-81
2021/06/18 14:18:39;;;;;;;;;1.60;1.60;;;;;;;;5007690;28;8883;-85
2021/06/18 14:21:07;;;;;;;;;1.80;1.80;;;;;;;;5005420;28;8898;-81
2021/06/18 14:23:35;;;;;;;;;0.00;0.00;;;;;;;;5006216;28;8892;-85
2021/06/18 14:26:02;;;;;;;;;2.00;2.00;;;;;;;;5006767;28;8955;-77
2021/06/18 14:28:30;;;;;;;;;0.00;0.00;;;;;;;;5005255;28;8888;-81
2021/06/18 14:30:58;;;;;;;;;2.00;2.00;;;;;;;;5004147;28;8904;-80
2021/06/18 14:33:25;;;;;;;;;2.20;2.20;;;;;;;;5005223;28;8904;-82
2021/06/18 14:35:54;;;;;;;;;4.40;1.80;;;;;;;;5005327;28;8942;-83
2021/06/18 14:38:21;;;;;;;;;0.40;0.40;;;;;;;;5001845;28;8903;-80
2021/06/18 14:40:48;;;;;;;;;0.60;0.60;;;;;;;;5004731;28;8918;-81
2021/06/18 14:43:16;;;;;;;;;1.00;1.00;;;;;;;;5003726;28;8882;-79
2021/06/18 14:45:43;;;;;;;;;2.00;0.60;;;;;;;;5002951;28;8860;-84
2021/06/18 14:48:10;;;;;;;;;2.00;2.00;;;;;;;;5003500;28;8852;-84
2021/06/18 14:50:38;;;;;;;;;1.60;1.60;;;;;;;;5004646;28;8987;-86
2021/06/18 14:53:06;;;;;;;;;0.00;0.00;;;;;;;;5006829;28;8876;-81
2021/06/18 14:55:33;;;;;;;;;1.00;1.00;;;;;;;;5003923;28;8902;-83
2021/06/18 14:58:01;;;;;;;;;0.20;0.20;;;;;;;;5004436;28;8888;-82
2021/06/18 15:00:28;;;;;;;;;1.00;1.00;;;;;;;;4993999;28;8816;-82
2021/06/18 15:02:55;;;;;;;;;0.80;0.80;;;;;;;;5006119;28;8900;-86
2021/06/18 15:05:23;;;;;;;;;0.00;0.00;;;;;;;;5004317;28;8887;-84
2021/06/18 15:07:50;;;;;;;;;1.00;1.00;;;;;;;;5004598;28;8876;-86
2021/06/18 15:10:19;;;;;;;;;2.40;1.00;;;;;;;;5004876;28;8868;-84